createdAt,value
2023-09-03T00:01:14.000Z,286.77
2023-09-03T00:02:40.000Z,286.77
2023-09-03T00:04:46.000Z,286.71
2023-09-03T00:06:13.000Z,286.77
2023-09-03T00:08:20.000Z,286.71
2023-09-03T00:09:47.000Z,286.71
2023-09-03T00:11:53.000Z,286.71
2023-09-03T00:13:20.000Z,286.77
2023-09-03T00:15:26.000Z,286.77
2023-09-03T00:16:52.000Z,286.71
2023-09-03T00:18:59.000Z,286.71
2023-09-03T00:20:25.000Z,286.71
2023-09-03T00:22:31.000Z,286.71
2023-09-03T00:25:17.000Z,286.65
2023-09-03T00:26:43.000Z,286.65
2023-09-03T00:28:50.000Z,286.59
2023-09-03T00:30:16.000Z,286.65
2023-09-03T00:32:22.000Z,286.59
2023-09-03T00:33:49.000Z,286.65
2023-09-03T00:35:55.000Z,286.59
2023-09-03T00:37:22.000Z,286.59
2023-09-03T00:39:28.000Z,286.59
2023-09-03T00:40:54.000Z,286.52
2023-09-03T00:43:01.000Z,286.46
2023-09-03T00:44:28.000Z,286.4
2023-09-03T00:46:34.000Z,286.34
2023-09-03T00:48:00.000Z,286.46
2023-09-03T00:50:07.000Z,286.59
2023-09-03T00:51:33.000Z,286.59
2023-09-03T00:53:39.000Z,286.46
2023-09-03T00:55:06.000Z,286.4
2023-09-03T00:57:12.000Z,286.34
2023-09-03T00:58:38.000Z,286.34
2023-09-03T01:00:45.000Z,286.34
2023-09-03T01:03:30.000Z,286.34
2023-09-03T01:04:57.000Z,286.34
2023-09-03T01:07:04.000Z,286.34
2023-09-03T01:08:30.000Z,286.34
2023-09-03T01:10:36.000Z,286.34
2023-09-03T01:12:03.000Z,286.4
2023-09-03T01:14:09.000Z,286.34
2023-09-03T01:15:36.000Z,286.34
2023-09-03T01:17:42.000Z,286.27
2023-09-03T01:19:08.000Z,286.21
2023-09-03T01:21:14.000Z,286.15
2023-09-03T01:22:41.000Z,286.15
2023-09-03T01:24:47.000Z,286.21
2023-09-03T01:26:14.000Z,286.15
2023-09-03T01:28:20.000Z,286.15
2023-09-03T01:29:47.000Z,286.15
2023-09-03T01:31:53.000Z,286.15
2023-09-03T01:33:20.000Z,286.15
2023-09-03T01:35:26.000Z,286.15
2023-09-03T01:36:52.000Z,286.15
2023-09-03T01:38:59.000Z,286.21
2023-09-03T01:41:44.000Z,286.21
2023-09-03T01:43:11.000Z,286.15
2023-09-03T01:45:17.000Z,286.02
2023-09-03T01:46:43.000Z,286.02
2023-09-03T01:48:50.000Z,286.09
2023-09-03T01:50:16.000Z,286.09
2023-09-03T01:52:22.000Z,286.02
2023-09-03T01:53:49.000Z,286.02
2023-09-03T01:55:55.000Z,286.02
2023-09-03T01:57:22.000Z,286.02
2023-09-03T01:59:28.000Z,285.96
2023-09-03T02:00:54.000Z,286.02
2023-09-03T02:03:01.000Z,286.02
2023-09-03T02:04:27.000Z,286.09
2023-09-03T02:06:33.000Z,286.02
2023-09-03T02:08:00.000Z,286.09
2023-09-03T02:10:06.000Z,286.09
2023-09-03T02:11:32.000Z,286.02
2023-09-03T02:13:39.000Z,285.96
2023-09-03T02:15:06.000Z,285.9
2023-09-03T02:17:12.000Z,285.96
2023-09-03T02:19:58.000Z,285.96
2023-09-03T02:21:24.000Z,285.96
2023-09-03T02:23:30.000Z,285.96
2023-09-03T02:24:57.000Z,285.9
2023-09-03T02:27:03.000Z,285.9
2023-09-03T02:28:30.000Z,285.9
2023-09-03T02:30:36.000Z,285.9
2023-09-03T02:32:02.000Z,285.96
2023-09-03T02:34:08.000Z,285.96
2023-09-03T02:35:35.000Z,285.96
2023-09-03T02:37:41.000Z,285.9
2023-09-03T02:39:08.000Z,285.96
2023-09-03T02:41:14.000Z,285.9
2023-09-03T02:42:41.000Z,285.9
2023-09-03T02:44:47.000Z,285.84
2023-09-03T02:46:13.000Z,285.84
2023-09-03T02:48:20.000Z,285.9
2023-09-03T02:49:47.000Z,285.9
2023-09-03T02:51:53.000Z,285.9
2023-09-03T02:53:19.000Z,285.9
2023-09-03T02:55:25.000Z,285.84
2023-09-03T02:58:11.000Z,285.9
2023-09-03T02:59:38.000Z,285.9
2023-09-03T03:01:44.000Z,286.02
2023-09-03T03:03:11.000Z,286.02
2023-09-03T03:05:17.000Z,286.15
2023-09-03T03:06:43.000Z,286.15
2023-09-03T03:08:50.000Z,286.21
2023-09-03T03:10:16.000Z,286.21
2023-09-03T03:12:22.000Z,286.21
2023-09-03T03:13:49.000Z,286.15
2023-09-03T03:15:55.000Z,286.15
2023-09-03T03:17:21.000Z,286.09
2023-09-03T03:19:28.000Z,286.09
2023-09-03T03:20:54.000Z,286.02
2023-09-03T03:23:00.000Z,285.96
2023-09-03T03:24:27.000Z,285.96
2023-09-03T03:26:33.000Z,285.96
2023-09-03T03:28:00.000Z,285.96
2023-09-03T03:30:06.000Z,285.96
2023-09-03T03:31:32.000Z,286.02
2023-09-03T03:33:38.000Z,286.15
2023-09-03T03:36:24.000Z,286.09
2023-09-03T03:37:51.000Z,286.02
2023-09-03T03:39:57.000Z,286.02
2023-09-03T03:41:23.000Z,286.09
2023-09-03T03:43:30.000Z,286.09
2023-09-03T03:44:56.000Z,286.09
2023-09-03T03:47:02.000Z,286.15
2023-09-03T03:48:29.000Z,286.09
2023-09-03T03:50:35.000Z,286.09
2023-09-03T03:52:01.000Z,286.15
2023-09-03T03:54:08.000Z,286.21
2023-09-03T03:55:34.000Z,286.21
2023-09-03T03:57:40.000Z,286.21
2023-09-03T03:59:07.000Z,286.21
2023-09-03T04:01:15.000Z,286.21
2023-09-03T04:02:42.000Z,286.27
2023-09-03T04:04:48.000Z,286.34
2023-09-03T04:06:14.000Z,286.34
2023-09-03T04:08:20.000Z,286.34
2023-09-03T04:09:47.000Z,286.34
2023-09-03T04:11:54.000Z,286.34
2023-09-03T04:14:39.000Z,286.27
2023-09-03T04:16:06.000Z,286.34
2023-09-03T04:18:12.000Z,286.27
2023-09-03T04:19:38.000Z,286.21
2023-09-03T04:21:44.000Z,286.21
2023-09-03T04:23:11.000Z,286.27
2023-09-03T04:25:17.000Z,286.21
2023-09-03T04:26:44.000Z,286.15
2023-09-03T04:28:50.000Z,286.15
2023-09-03T04:30:17.000Z,286.09
2023-09-03T04:32:23.000Z,285.96
2023-09-03T04:33:49.000Z,285.96
2023-09-03T04:35:56.000Z,285.96
2023-09-03T04:37:22.000Z,285.96
2023-09-03T04:39:29.000Z,285.96
2023-09-03T04:40:55.000Z,285.96
2023-09-03T04:43:02.000Z,285.96
2023-09-03T04:44:28.000Z,285.96
2023-09-03T04:46:34.000Z,285.96
2023-09-03T04:48:01.000Z,285.96
2023-09-03T04:50:07.000Z,285.96
2023-09-03T04:52:53.000Z,285.9
2023-09-03T04:54:19.000Z,285.96
2023-09-03T04:56:25.000Z,285.96
2023-09-03T04:57:52.000Z,285.96
2023-09-03T04:59:58.000Z,285.9
2023-09-03T05:01:25.000Z,285.9
2023-09-03T05:03:31.000Z,286.02
2023-09-03T05:04:58.000Z,286.02
2023-09-03T05:07:05.000Z,286.02
2023-09-03T05:08:32.000Z,286.09
2023-09-03T05:10:38.000Z,286.15
2023-09-03T05:12:04.000Z,286.15
2023-09-03T05:14:11.000Z,286.15
2023-09-03T05:15:37.000Z,286.21
2023-09-03T05:17:43.000Z,286.21
2023-09-03T05:19:10.000Z,286.27
2023-09-03T05:21:16.000Z,286.34
2023-09-03T05:22:43.000Z,286.34
2023-09-03T05:24:49.000Z,286.4
2023-09-03T05:26:16.000Z,286.46
2023-09-03T05:28:22.000Z,286.52
2023-09-03T05:31:07.000Z,286.59
2023-09-03T05:32:33.000Z,286.65
2023-09-03T05:34:40.000Z,286.71
2023-09-03T05:36:06.000Z,286.71
2023-09-03T05:38:12.000Z,286.77
2023-09-03T05:39:39.000Z,286.9
2023-09-03T05:41:45.000Z,286.9
2023-09-03T05:43:12.000Z,286.96
2023-09-03T05:45:18.000Z,287.02
2023-09-03T05:46:44.000Z,287.02
2023-09-03T05:48:51.000Z,287.09
2023-09-03T05:50:17.000Z,287.09
2023-09-03T05:52:24.000Z,287.15
2023-09-03T05:53:50.000Z,287.15
2023-09-03T05:55:56.000Z,287.21
2023-09-03T05:57:23.000Z,287.21
2023-09-03T05:59:29.000Z,287.27
2023-09-03T06:00:56.000Z,287.34
2023-09-03T06:03:02.000Z,287.34
2023-09-03T06:04:29.000Z,287.46
2023-09-03T06:06:35.000Z,287.52
2023-09-03T06:09:20.000Z,287.59
2023-09-03T06:10:47.000Z,287.65
2023-09-03T06:12:53.000Z,287.65
2023-09-03T06:14:19.000Z,287.65
2023-09-03T06:16:26.000Z,287.71
2023-09-03T06:17:52.000Z,287.77
2023-09-03T06:19:59.000Z,287.77
2023-09-03T06:21:25.000Z,287.77
2023-09-03T06:23:32.000Z,287.84
2023-09-03T06:24:59.000Z,287.84
2023-09-03T06:27:05.000Z,287.9
2023-09-03T06:28:32.000Z,287.9
2023-09-03T06:30:38.000Z,287.96
2023-09-03T06:32:04.000Z,287.96
2023-09-03T06:34:11.000Z,288.02
2023-09-03T06:35:37.000Z,288.09
2023-09-03T06:37:43.000Z,288.15
2023-09-03T06:39:10.000Z,288.15
2023-09-03T06:41:16.000Z,288.15
2023-09-03T06:42:43.000Z,288.21
2023-09-03T06:44:49.000Z,288.21
2023-09-03T06:47:34.000Z,288.27
2023-09-03T06:49:01.000Z,288.34
2023-09-03T06:51:07.000Z,288.4
2023-09-03T06:52:34.000Z,288.4
2023-09-03T06:54:40.000Z,288.46
2023-09-03T06:56:06.000Z,288.52
2023-09-03T06:58:13.000Z,288.52
2023-09-03T06:59:39.000Z,288.52
2023-09-03T07:01:45.000Z,288.59
2023-09-03T07:03:12.000Z,288.59
2023-09-03T07:05:18.000Z,288.71
2023-09-03T07:06:45.000Z,288.71
2023-09-03T07:08:51.000Z,288.71
2023-09-03T07:10:18.000Z,288.77
2023-09-03T07:12:24.000Z,288.77
2023-09-03T07:13:50.000Z,288.84
2023-09-03T07:15:58.000Z,288.84
2023-09-03T07:17:24.000Z,288.84
2023-09-03T07:19:30.000Z,288.9
2023-09-03T07:20:57.000Z,288.9
2023-09-03T07:23:04.000Z,288.9
2023-09-03T07:25:49.000Z,288.96
2023-09-03T07:27:15.000Z,288.96
2023-09-03T07:29:22.000Z,288.96
2023-09-03T07:30:48.000Z,288.96
2023-09-03T07:32:55.000Z,289.02
2023-09-03T07:34:22.000Z,289.02
2023-09-03T07:36:28.000Z,289.09
2023-09-03T07:37:54.000Z,289.15
2023-09-03T07:40:01.000Z,289.21
2023-09-03T07:41:27.000Z,289.27
2023-09-03T07:43:33.000Z,289.34
2023-09-03T07:45:00.000Z,289.34
2023-09-03T07:47:06.000Z,289.4
2023-09-03T07:48:33.000Z,289.4
2023-09-03T07:50:39.000Z,289.52
2023-09-03T07:52:05.000Z,289.59
2023-09-03T07:54:12.000Z,289.65
2023-09-03T07:55:38.000Z,289.71
2023-09-03T07:57:44.000Z,289.77
2023-09-03T07:59:11.000Z,289.84
2023-09-03T08:01:17.000Z,289.96
2023-09-03T08:04:02.000Z,290.02
2023-09-03T08:05:29.000Z,290.15
2023-09-03T08:07:35.000Z,290.15
2023-09-03T08:09:02.000Z,290.15
2023-09-03T08:11:08.000Z,290.15
2023-09-03T08:12:35.000Z,290.27
2023-09-03T08:14:41.000Z,290.27
2023-09-03T08:16:07.000Z,290.27
2023-09-03T08:18:14.000Z,290.27
2023-09-03T08:19:40.000Z,290.27
2023-09-03T08:21:47.000Z,290.27
2023-09-03T08:23:13.000Z,290.27
2023-09-03T08:25:20.000Z,290.21
2023-09-03T08:26:46.000Z,290.15
2023-09-03T08:28:53.000Z,290.15
2023-09-03T08:30:19.000Z,290.21
2023-09-03T08:32:25.000Z,290.27
2023-09-03T08:33:52.000Z,290.27
2023-09-03T08:35:58.000Z,290.34
2023-09-03T08:37:25.000Z,290.4
2023-09-03T08:39:31.000Z,290.52
2023-09-03T08:42:16.000Z,290.59
2023-09-03T08:43:43.000Z,290.65
2023-09-03T08:45:49.000Z,290.71
2023-09-03T08:47:15.000Z,290.77
2023-09-03T08:49:22.000Z,290.77
2023-09-03T08:50:48.000Z,290.84
2023-09-03T08:52:54.000Z,290.84
2023-09-03T08:54:21.000Z,290.84
2023-09-03T08:56:27.000Z,290.84
2023-09-03T08:57:54.000Z,290.9
2023-09-03T09:00:00.000Z,290.96
2023-09-03T09:01:26.000Z,291.02
2023-09-03T09:03:33.000Z,291.02
2023-09-03T09:04:59.000Z,291.02
2023-09-03T09:07:06.000Z,291.27
2023-09-03T09:08:32.000Z,291.34
2023-09-03T09:10:39.000Z,291.02
2023-09-03T09:12:06.000Z,291.02
2023-09-03T09:14:12.000Z,290.9
2023-09-03T09:15:39.000Z,290.96
2023-09-03T09:17:45.000Z,291.02
2023-09-03T09:20:31.000Z,291.27
2023-09-03T09:21:57.000Z,291.4
2023-09-03T09:24:03.000Z,291.59
2023-09-03T09:25:30.000Z,291.65
2023-09-03T09:27:36.000Z,291.77
2023-09-03T09:29:02.000Z,291.84
2023-09-03T09:31:09.000Z,291.9
2023-09-03T09:32:35.000Z,291.9
2023-09-03T09:34:42.000Z,292.02
2023-09-03T09:36:08.000Z,292.09
2023-09-03T09:38:14.000Z,292.15
2023-09-03T09:39:41.000Z,292.21
2023-09-03T09:41:47.000Z,292.21
2023-09-03T09:43:14.000Z,292.21
2023-09-03T09:45:20.000Z,292.21
2023-09-03T09:46:46.000Z,292.34
2023-09-03T09:48:52.000Z,292.52
2023-09-03T09:50:19.000Z,292.52
2023-09-03T09:52:25.000Z,292.4
2023-09-03T09:53:52.000Z,292.34
2023-09-03T09:55:58.000Z,292.52
2023-09-03T09:58:44.000Z,292.59
2023-09-03T10:00:10.000Z,292.71
2023-09-03T10:02:17.000Z,292.77
2023-09-03T10:03:43.000Z,292.9
2023-09-03T10:05:49.000Z,292.77
2023-09-03T10:07:16.000Z,292.9
2023-09-03T10:09:22.000Z,292.9
2023-09-03T10:10:49.000Z,293.02
2023-09-03T10:12:55.000Z,293.21
2023-09-03T10:14:22.000Z,293.21
2023-09-03T10:16:28.000Z,293.27
2023-09-03T10:17:58.000Z,293.34
2023-09-03T10:20:04.000Z,293.21
2023-09-03T10:21:31.000Z,293.15
2023-09-03T10:23:59.000Z,293.15
2023-09-03T10:25:25.000Z,293.15
2023-09-03T10:27:31.000Z,293.4
2023-09-03T10:28:58.000Z,293.21
2023-09-03T10:31:04.000Z,293.21
2023-09-03T10:32:31.000Z,293.4
2023-09-03T10:34:37.000Z,293.52
2023-09-03T10:37:23.000Z,293.46
2023-09-03T10:38:49.000Z,293.46
2023-09-03T10:40:55.000Z,293.65
2023-09-03T10:42:22.000Z,293.84
2023-09-03T10:44:29.000Z,293.84
2023-09-03T10:45:55.000Z,293.9
2023-09-03T10:48:01.000Z,293.84
2023-09-03T10:49:28.000Z,293.9
2023-09-03T10:51:34.000Z,294.02
2023-09-03T10:53:01.000Z,294.09
2023-09-03T10:55:07.000Z,294.09
2023-09-03T10:56:34.000Z,294.02
2023-09-03T10:58:40.000Z,293.9
2023-09-03T11:00:06.000Z,294.02
2023-09-03T11:02:13.000Z,294.15
2023-09-03T11:03:39.000Z,294.21
2023-09-03T11:05:45.000Z,294.02
2023-09-03T11:07:12.000Z,294.15
2023-09-03T11:09:18.000Z,294.15
2023-09-03T11:10:45.000Z,293.77
2023-09-03T11:12:51.000Z,294.02
2023-09-03T11:15:37.000Z,294.09
2023-09-03T11:17:03.000Z,294.21
2023-09-03T11:19:10.000Z,294.27
2023-09-03T11:20:36.000Z,294.46
2023-09-03T11:22:55.000Z,294.34
2023-09-03T11:24:22.000Z,294.46
2023-09-03T11:26:28.000Z,294.15
2023-09-03T11:27:54.000Z,294.21
2023-09-03T11:30:01.000Z,294.27
2023-09-03T11:31:27.000Z,294.21
2023-09-03T11:33:34.000Z,294.15
2023-09-03T11:35:00.000Z,294.15
2023-09-03T11:37:06.000Z,294.02
2023-09-03T11:38:33.000Z,294.09
2023-09-03T11:40:39.000Z,294.09
2023-09-03T11:42:06.000Z,294.02
2023-09-03T11:44:12.000Z,294.15
2023-09-03T11:45:39.000Z,294.27
2023-09-03T11:47:45.000Z,294.46
2023-09-03T11:49:11.000Z,294.52
2023-09-03T11:51:18.000Z,294.34
2023-09-03T11:54:03.000Z,294.46
2023-09-03T11:55:29.000Z,294.21
2023-09-03T11:57:36.000Z,294.27
2023-09-03T11:59:03.000Z,294.46
2023-09-03T12:01:09.000Z,294.52
2023-09-03T12:02:36.000Z,294.59
2023-09-03T12:04:42.000Z,294.71
2023-09-03T12:06:09.000Z,294.59
2023-09-03T12:08:15.000Z,294.77
2023-09-03T12:09:42.000Z,294.96
2023-09-03T12:11:48.000Z,294.9
2023-09-03T12:13:14.000Z,294.84
2023-09-03T12:15:21.000Z,294.77
2023-09-03T12:16:47.000Z,294.65
2023-09-03T12:18:53.000Z,294.71
2023-09-03T12:20:20.000Z,294.84
2023-09-03T12:22:27.000Z,294.96
2023-09-03T12:23:54.000Z,295.15
2023-09-03T12:26:00.000Z,295.09
2023-09-03T12:27:27.000Z,295.15
2023-09-03T12:29:33.000Z,295.15
2023-09-03T12:32:35.000Z,294.96
2023-09-03T12:34:05.000Z,294.9
2023-09-03T12:36:11.000Z,295.09
2023-09-03T12:37:38.000Z,295.21
2023-09-03T12:39:44.000Z,295.34
2023-09-03T12:41:10.000Z,295.46
2023-09-03T12:43:17.000Z,295.34
2023-09-03T12:44:44.000Z,295.46
2023-09-03T12:46:50.000Z,295.59
2023-09-03T12:48:16.000Z,295.59
2023-09-03T12:50:23.000Z,295.46
2023-09-03T12:51:49.000Z,295.46
2023-09-03T12:53:55.000Z,295.59
2023-09-03T12:55:22.000Z,295.71
2023-09-03T12:57:28.000Z,295.77
2023-09-03T12:58:55.000Z,295.84
2023-09-03T13:01:01.000Z,295.71
2023-09-03T13:02:27.000Z,295.59
2023-09-03T13:04:34.000Z,295.65
2023-09-03T13:06:00.000Z,295.71
2023-09-03T13:08:07.000Z,295.84
2023-09-03T13:10:52.000Z,295.9
2023-09-03T13:12:19.000Z,295.9
2023-09-03T13:14:25.000Z,295.77
2023-09-03T13:15:51.000Z,295.77
2023-09-03T13:17:58.000Z,295.77
2023-09-03T13:19:24.000Z,295.77
2023-09-03T13:21:30.000Z,295.71
2023-09-03T13:22:57.000Z,295.65
2023-09-03T13:25:03.000Z,295.84
2023-09-03T13:26:30.000Z,295.9
2023-09-03T13:28:36.000Z,295.9
2023-09-03T13:30:02.000Z,295.77
2023-09-03T13:32:08.000Z,295.77
2023-09-03T13:33:35.000Z,295.96
2023-09-03T13:35:42.000Z,295.84
2023-09-03T13:37:08.000Z,295.84
2023-09-03T13:39:14.000Z,296.02
2023-09-03T13:40:41.000Z,296.09
2023-09-03T13:42:47.000Z,296.09
2023-09-03T13:44:13.000Z,296.21
2023-09-03T13:46:20.000Z,296.34
2023-09-03T13:49:05.000Z,296.15
2023-09-03T13:50:32.000Z,295.96
2023-09-03T13:52:38.000Z,296.02
2023-09-03T13:54:04.000Z,295.9
2023-09-03T13:56:11.000Z,296.09
2023-09-03T13:57:37.000Z,296.15
2023-09-03T13:59:43.000Z,296.15
2023-09-03T14:01:10.000Z,296.15
2023-09-03T14:03:16.000Z,296.15
2023-09-03T14:04:43.000Z,296.09
2023-09-03T14:06:49.000Z,296.09
2023-09-03T14:08:16.000Z,296.21
2023-09-03T14:10:22.000Z,296.15
2023-09-03T14:11:48.000Z,296.09
2023-09-03T14:13:55.000Z,296.21
2023-09-03T14:15:21.000Z,296.34
2023-09-03T14:17:27.000Z,296.52
2023-09-03T14:18:54.000Z,296.4
2023-09-03T14:21:00.000Z,296.34
2023-09-03T14:22:27.000Z,296.46
2023-09-03T14:24:33.000Z,296.46
2023-09-03T14:27:18.000Z,296.34
2023-09-03T14:28:45.000Z,296.34
2023-09-03T14:30:51.000Z,296.27
2023-09-03T14:32:18.000Z,296.4
2023-09-03T14:34:24.000Z,296.21
2023-09-03T14:35:51.000Z,296.34
2023-09-03T14:37:57.000Z,296.4
2023-09-03T14:39:24.000Z,296.4
2023-09-03T14:41:30.000Z,296.21
2023-09-03T14:42:56.000Z,296.27
2023-09-03T14:45:03.000Z,296.4
2023-09-03T14:46:30.000Z,296.46
2023-09-03T14:48:36.000Z,296.46
2023-09-03T14:50:02.000Z,296.46
2023-09-03T14:52:09.000Z,296.21
2023-09-03T14:53:35.000Z,296.15
2023-09-03T14:55:41.000Z,296.21
2023-09-03T14:57:08.000Z,296.27
2023-09-03T14:59:14.000Z,296.21
2023-09-03T15:00:41.000Z,296.27
2023-09-03T15:02:47.000Z,296.27
2023-09-03T15:05:32.000Z,296.27
2023-09-03T15:06:59.000Z,296.27
2023-09-03T15:09:05.000Z,296.27
2023-09-03T15:10:31.000Z,296.34
2023-09-03T15:12:37.000Z,296.34
2023-09-03T15:14:04.000Z,296.4
2023-09-03T15:16:10.000Z,296.34
2023-09-03T15:17:37.000Z,296.4
2023-09-03T15:19:44.000Z,296.27
2023-09-03T15:21:10.000Z,296.27
2023-09-03T15:23:16.000Z,296.21
2023-09-03T15:24:43.000Z,296.15
2023-09-03T15:26:49.000Z,296.09
2023-09-03T15:28:16.000Z,296.15
2023-09-03T15:30:22.000Z,296.21
2023-09-03T15:31:48.000Z,296.15
2023-09-03T15:33:54.000Z,296.02
2023-09-03T15:35:21.000Z,295.9
2023-09-03T15:37:27.000Z,295.96
2023-09-03T15:38:54.000Z,296.02
2023-09-03T15:41:00.000Z,295.9
2023-09-03T15:43:46.000Z,295.96
2023-09-03T15:45:12.000Z,295.96
2023-09-03T15:47:18.000Z,295.96
2023-09-03T15:48:45.000Z,295.9
2023-09-03T15:50:51.000Z,295.96
2023-09-03T15:52:18.000Z,295.96
2023-09-03T15:54:24.000Z,295.9
2023-09-03T15:55:50.000Z,295.9
2023-09-03T15:57:57.000Z,295.84
2023-09-03T15:59:23.000Z,295.84
2023-09-03T16:01:30.000Z,295.9
2023-09-03T16:02:57.000Z,295.9
2023-09-03T16:05:03.000Z,295.65
2023-09-03T16:06:29.000Z,295.59
2023-09-03T16:08:36.000Z,295.52
2023-09-03T16:10:02.000Z,295.52
2023-09-03T16:12:08.000Z,295.52
2023-09-03T16:13:35.000Z,295.46
2023-09-03T16:15:41.000Z,295.52
2023-09-03T16:17:08.000Z,295.46
2023-09-03T16:19:14.000Z,295.46
2023-09-03T16:22:00.000Z,295.46
2023-09-03T16:23:26.000Z,295.4
2023-09-03T16:25:32.000Z,295.34
2023-09-03T16:26:59.000Z,295.27
2023-09-03T16:29:05.000Z,295.21
2023-09-03T16:30:32.000Z,295.21
2023-09-03T16:32:38.000Z,295.15
2023-09-03T16:34:04.000Z,295.09
2023-09-03T16:36:11.000Z,294.9
2023-09-03T16:37:37.000Z,294.9
2023-09-03T16:39:44.000Z,294.77
2023-09-03T16:41:10.000Z,294.77
2023-09-03T16:43:16.000Z,294.59
2023-09-03T16:44:43.000Z,294.4
2023-09-03T16:46:49.000Z,294.09
2023-09-03T16:48:16.000Z,294.02
2023-09-03T16:50:22.000Z,294.02
2023-09-03T16:51:48.000Z,293.96
2023-09-03T16:53:54.000Z,293.84
2023-09-03T16:55:21.000Z,293.96
2023-09-03T16:57:27.000Z,293.84
2023-09-03T17:00:13.000Z,293.84
2023-09-03T17:01:39.000Z,293.77
2023-09-03T17:03:45.000Z,293.65
2023-09-03T17:05:15.000Z,293.59
2023-09-03T17:07:21.000Z,293.52
2023-09-03T17:08:48.000Z,293.4
2023-09-03T17:10:54.000Z,293.09
2023-09-03T17:12:20.000Z,293.02
2023-09-03T17:14:27.000Z,292.96
2023-09-03T17:15:53.000Z,293.09
2023-09-03T17:18:00.000Z,293.15
2023-09-03T17:19:26.000Z,293.09
2023-09-03T17:21:32.000Z,292.84
2023-09-03T17:22:59.000Z,292.77
2023-09-03T17:25:08.000Z,292.46
2023-09-03T17:26:35.000Z,292.4
2023-09-03T17:28:41.000Z,292.34
2023-09-03T17:30:08.000Z,292.21
2023-09-03T17:32:14.000Z,292.02
2023-09-03T17:33:44.000Z,291.96
2023-09-03T17:35:51.000Z,291.84
2023-09-03T17:38:36.000Z,291.71
2023-09-03T17:40:03.000Z,291.65
2023-09-03T17:42:09.000Z,291.59
2023-09-03T17:43:36.000Z,291.46
2023-09-03T17:45:43.000Z,291.34
2023-09-03T17:47:10.000Z,291.34
2023-09-03T17:49:16.000Z,291.21
2023-09-03T17:50:42.000Z,291.15
2023-09-03T17:52:49.000Z,291.02
2023-09-03T17:54:15.000Z,290.84
2023-09-03T17:56:21.000Z,290.71
2023-09-03T17:57:48.000Z,290.71
2023-09-03T17:59:54.000Z,290.59
2023-09-03T18:01:20.000Z,290.65
2023-09-03T18:03:27.000Z,290.52
2023-09-03T18:04:59.000Z,290.46
2023-09-03T18:07:05.000Z,290.46
2023-09-03T18:08:31.000Z,290.4
2023-09-03T18:10:37.000Z,290.27
2023-09-03T18:12:04.000Z,290.21
2023-09-03T18:14:10.000Z,290.15
2023-09-03T18:16:55.000Z,289.96
2023-09-03T18:18:22.000Z,289.96
2023-09-03T18:20:29.000Z,289.84
2023-09-03T18:21:56.000Z,289.71
2023-09-03T18:24:02.000Z,289.59
2023-09-03T18:25:28.000Z,289.59
2023-09-03T18:27:35.000Z,289.59
2023-09-03T18:29:02.000Z,289.59
2023-09-03T18:31:08.000Z,289.52
2023-09-03T18:32:35.000Z,289.46
2023-09-03T18:34:41.000Z,289.34
2023-09-03T18:36:08.000Z,289.21
2023-09-03T18:38:14.000Z,289.09
2023-09-03T18:39:40.000Z,289.02
2023-09-03T18:41:46.000Z,288.96
2023-09-03T18:43:13.000Z,288.96
2023-09-03T18:45:19.000Z,288.9
2023-09-03T18:46:46.000Z,288.84
2023-09-03T18:48:52.000Z,288.84
2023-09-03T18:50:18.000Z,288.9
2023-09-03T18:52:25.000Z,288.84
2023-09-03T18:55:10.000Z,288.65
2023-09-03T18:56:37.000Z,288.59
2023-09-03T18:58:43.000Z,288.52
2023-09-03T19:00:10.000Z,288.52
2023-09-03T19:02:16.000Z,288.34
2023-09-03T19:03:42.000Z,288.34
2023-09-03T19:05:49.000Z,288.34
2023-09-03T19:07:15.000Z,288.27
2023-09-03T19:09:21.000Z,288.21
2023-09-03T19:10:48.000Z,288.15
2023-09-03T19:12:54.000Z,288.15
2023-09-03T19:14:21.000Z,288.09
2023-09-03T19:16:27.000Z,288.09
2023-09-03T19:17:53.000Z,288.15
2023-09-03T19:20:00.000Z,288.09
2023-09-03T19:21:26.000Z,288.15
2023-09-03T19:23:32.000Z,288.15
2023-09-03T19:24:59.000Z,288.15
2023-09-03T19:27:05.000Z,288.09
2023-09-03T19:28:35.000Z,288.02
2023-09-03T19:30:41.000Z,288.15
2023-09-03T19:33:26.000Z,288.09
2023-09-03T19:34:53.000Z,288.02
2023-09-03T19:36:59.000Z,287.9
2023-09-03T19:38:26.000Z,287.84
2023-09-03T19:40:33.000Z,287.84
2023-09-03T19:42:00.000Z,287.71
2023-09-03T19:44:06.000Z,287.71
2023-09-03T19:45:33.000Z,287.65
2023-09-03T19:47:39.000Z,287.71
2023-09-03T19:49:05.000Z,287.65
2023-09-03T19:51:12.000Z,287.52
2023-09-03T19:52:38.000Z,287.52
2023-09-03T19:54:44.000Z,287.52
2023-09-03T19:56:11.000Z,287.59
2023-09-03T19:58:17.000Z,287.52
2023-09-03T19:59:43.000Z,287.59
2023-09-03T20:01:50.000Z,287.46
2023-09-03T20:03:17.000Z,287.46
2023-09-03T20:05:23.000Z,287.4
2023-09-03T20:06:50.000Z,287.34
2023-09-03T20:08:56.000Z,287.34
2023-09-03T20:11:41.000Z,287.4
2023-09-03T20:13:08.000Z,287.4
2023-09-03T20:15:14.000Z,287.34
2023-09-03T20:16:44.000Z,287.27
2023-09-03T20:18:51.000Z,287.27
2023-09-03T20:20:17.000Z,287.15
2023-09-03T20:22:23.000Z,287.15
2023-09-03T20:23:50.000Z,287.09
2023-09-03T20:25:56.000Z,287.09
2023-09-03T20:27:23.000Z,287.09
2023-09-03T20:29:29.000Z,287.09
2023-09-03T20:30:55.000Z,287.09
2023-09-03T20:33:02.000Z,287.09
2023-09-03T20:34:28.000Z,287.09
2023-09-03T20:36:35.000Z,287.02
2023-09-03T20:38:02.000Z,286.96
2023-09-03T20:40:08.000Z,286.96
2023-09-03T20:41:34.000Z,287.02
2023-09-03T20:43:40.000Z,286.96
2023-09-03T20:45:07.000Z,286.9
2023-09-03T20:47:13.000Z,286.77
2023-09-03T20:49:58.000Z,286.77
2023-09-03T20:51:25.000Z,286.84
2023-09-03T20:53:32.000Z,286.77
2023-09-03T20:54:58.000Z,286.77
2023-09-03T20:57:05.000Z,286.71
2023-09-03T20:58:31.000Z,286.77
2023-09-03T21:00:38.000Z,286.71
2023-09-03T21:02:04.000Z,286.71
2023-09-03T21:04:10.000Z,286.77
2023-09-03T21:05:37.000Z,286.77
2023-09-03T21:07:43.000Z,286.77
2023-09-03T21:09:10.000Z,286.77
2023-09-03T21:11:16.000Z,286.71
2023-09-03T21:12:43.000Z,286.77
2023-09-03T21:14:49.000Z,286.71
2023-09-03T21:16:15.000Z,286.65
2023-09-03T21:18:21.000Z,286.65
2023-09-03T21:19:49.000Z,286.65
2023-09-03T21:21:55.000Z,286.52
2023-09-03T21:23:22.000Z,286.52
2023-09-03T21:25:28.000Z,286.65
2023-09-03T21:28:13.000Z,286.59
2023-09-03T21:29:39.000Z,286.46
2023-09-03T21:31:46.000Z,286.4
2023-09-03T21:33:12.000Z,286.34
2023-09-03T21:35:18.000Z,286.34
2023-09-03T21:36:48.000Z,286.34
2023-09-03T21:38:55.000Z,286.27
2023-09-03T21:40:21.000Z,286.34
2023-09-03T21:42:28.000Z,286.34
2023-09-03T21:43:54.000Z,286.27
2023-09-03T21:46:01.000Z,286.27
2023-09-03T21:47:27.000Z,286.27
2023-09-03T21:49:33.000Z,286.34
2023-09-03T21:51:00.000Z,286.27
2023-09-03T21:53:23.000Z,286.27
2023-09-03T21:54:49.000Z,286.27
2023-09-03T21:56:55.000Z,286.21
2023-09-03T21:58:22.000Z,286.21
2023-09-03T22:00:28.000Z,286.21
2023-09-03T22:01:55.000Z,286.15
2023-09-03T22:04:01.000Z,286.09
2023-09-03T22:06:47.000Z,286.09
2023-09-03T22:08:13.000Z,286.02
2023-09-03T22:10:20.000Z,286.02
2023-09-03T22:11:46.000Z,285.96
2023-09-03T22:13:53.000Z,285.96
2023-09-03T22:15:19.000Z,285.96
2023-09-03T22:17:25.000Z,285.9
2023-09-03T22:18:52.000Z,285.9
2023-09-03T22:21:03.000Z,285.9
2023-09-03T22:22:30.000Z,285.9
2023-09-03T22:24:36.000Z,285.9
2023-09-03T22:26:03.000Z,285.9
2023-09-03T22:28:09.000Z,285.84
2023-09-03T22:29:35.000Z,285.84
2023-09-03T22:31:42.000Z,285.84
2023-09-03T22:33:08.000Z,285.77
2023-09-03T22:35:15.000Z,285.84
2023-09-03T22:36:42.000Z,285.84
2023-09-03T22:38:48.000Z,285.77
2023-09-03T22:40:14.000Z,285.71
2023-09-03T22:42:20.000Z,285.65
2023-09-03T22:45:06.000Z,285.59
2023-09-03T22:46:32.000Z,285.59
2023-09-03T22:48:38.000Z,285.52
2023-09-03T22:50:05.000Z,285.52